sensor_id;sensor_type;location;lat;lon;timestamp;P1;P2;P0
73623;PMS5003;61921;53.226;-1.296;2023-06-19T00:00:15;21;19;
73623;PMS5003;61921;53.226;-1.296;2023-06-19T00:02:40;21;20;
73623;PMS5003;61921;53.226;-1.296;2023-06-19T00:05:06;18;17;
73623;PMS5003;61921;53.226;-1.296;2023-06-19T00:07:31;20;20;
73623;PMS5003;61921;53.226;-1.296;2023-06-19T00:09:57;24;21;
73623;PMS5003;61921;53.226;-1.296;2023-06-19T00:12:22;23;23;
73623;PMS5003;61921;53.226;-1.296;2023-06-19T00:14:48;26;25;
73623;PMS5003;61921;53.226;-1.296;2023-06-19T00:17:14;24;24;
73623;PMS5003;61921;53.226;-1.296;2023-06-19T00:19:39;26;26;
73623;PMS5003;61921;53.226;-1.296;2023-06-19T00:22:05;23;21;
73623;PMS5003;61921;53.226;-1.296;2023-06-19T00:24:29;26;24;
73623;PMS5003;61921;53.226;-1.296;2023-06-19T00:26:55;25;23;
73623;PMS5003;61921;53.226;-1.296;2023-06-19T00:29:20;26;25;
73623;PMS5003;61921;53.226;-1.296;2023-06-19T00:31:45;20;19;
73623;PMS5003;61921;53.226;-1.296;2023-06-19T00:34:10;24;23;
73623;PMS5003;61921;53.226;-1.296;2023-06-19T00:36:36;23;22;
73623;PMS5003;61921;53.226;-1.296;2023-06-19T00:39:02;18;18;
73623;PMS5003;61921;53.226;-1.296;2023-06-19T00:41:27;23;22;
73623;PMS5003;61921;53.226;-1.296;2023-06-19T00:43:53;21;21;
73623;PMS5003;61921;53.226;-1.296;2023-06-19T00:46:18;22;22;
73623;PMS5003;61921;53.226;-1.296;2023-06-19T00:48:43;21;20;
73623;PMS5003;61921;53.226;-1.296;2023-06-19T00:51:09;27;23;
73623;PMS5003;61921;53.226;-1.296;2023-06-19T00:53:34;26;25;
73623;PMS5003;61921;53.226;-1.296;2023-06-19T00:56:00;24;22;
73623;PMS5003;61921;53.226;-1.296;2023-06-19T00:58:26;26;23;
73623;PMS5003;61921;53.226;-1.296;2023-06-19T01:00:51;23;23;
73623;PMS5003;61921;53.226;-1.296;2023-06-19T01:03:16;23;20;
73623;PMS5003;61921;53.226;-1.296;2023-06-19T01:05:42;18;17;
73623;PMS5003;61921;53.226;-1.296;2023-06-19T01:08:08;19;18;
73623;PMS5003;61921;53.226;-1.296;2023-06-19T01:10:34;23;22;
73623;PMS5003;61921;53.226;-1.296;2023-06-19T01:13:00;23;21;
73623;PMS5003;61921;53.226;-1.296;2023-06-19T01:15:24;21;19;
73623;PMS5003;61921;53.226;-1.296;2023-06-19T01:17:50;19;19;
73623;PMS5003;61921;53.226;-1.296;2023-06-19T01:20:15;15;15;
73623;PMS5003;61921;53.226;-1.296;2023-06-19T01:22:41;20;20;
73623;PMS5003;61921;53.226;-1.296;2023-06-19T01:25:07;20;17;
73623;PMS5003;61921;53.226;-1.296;2023-06-19T01:27:32;22;19;
73623;PMS5003;61921;53.226;-1.296;2023-06-19T01:29:58;24;24;
73623;PMS5003;61921;53.226;-1.296;2023-06-19T01:32:25;25;21;
73623;PMS5003;61921;53.226;-1.296;2023-06-19T01:34:49;24;21;
73623;PMS5003;61921;53.226;-1.296;2023-06-19T01:37:15;24;23;
73623;PMS5003;61921;53.226;-1.296;2023-06-19T01:39:42;23;22;
73623;PMS5003;61921;53.226;-1.296;2023-06-19T01:42:06;24;24;
73623;PMS5003;61921;53.226;-1.296;2023-06-19T01:44:32;30;28;
73623;PMS5003;61921;53.226;-1.296;2023-06-19T01:46:58;25;25;
73623;PMS5003;61921;53.226;-1.296;2023-06-19T01:49:23;32;31;
73623;PMS5003;61921;53.226;-1.296;2023-06-19T01:51:48;28;26;
73623;PMS5003;61921;53.226;-1.296;2023-06-19T01:54:14;27;26;
73623;PMS5003;61921;53.226;-1.296;2023-06-19T01:56:39;28;28;
73623;PMS5003;61921;53.226;-1.296;2023-06-19T01:59:05;30;26;
73623;PMS5003;61921;53.226;-1.296;2023-06-19T02:01:31;31;30;
73623;PMS5003;61921;53.226;-1.296;2023-06-19T02:03:56;32;30;
73623;PMS5003;61921;53.226;-1.296;2023-06-19T02:06:21;31;28;
73623;PMS5003;61921;53.226;-1.296;2023-06-19T02:08:47;34;28;
73623;PMS5003;61921;53.226;-1.296;2023-06-19T02:11:12;32;27;
73623;PMS5003;61921;53.226;-1.296;2023-06-19T02:13:38;33;32;
73623;PMS5003;61921;53.226;-1.296;2023-06-19T02:16:03;30;30;
73623;PMS5003;61921;53.226;-1.296;2023-06-19T02:18:29;36;35;
73623;PMS5003;61921;53.226;-1.296;2023-06-19T02:20:54;34;33;
73623;PMS5003;61921;53.226;-1.296;2023-06-19T02:23:19;35;33;
73623;PMS5003;61921;53.226;-1.296;2023-06-19T02:25:45;30;30;
73623;PMS5003;61921;53.226;-1.296;2023-06-19T02:28:11;38;38;
73623;PMS5003;61921;53.226;-1.296;2023-06-19T02:30:37;31;29;
73623;PMS5003;61921;53.226;-1.296;2023-06-19T02:33:02;34;32;
73623;PMS5003;61921;53.226;-1.296;2023-06-19T02:35:28;37;32;
73623;PMS5003;61921;53.226;-1.296;2023-06-19T02:37:53;40;39;
73623;PMS5003;61921;53.226;-1.296;2023-06-19T02:40:19;36;36;
73623;PMS5003;61921;53.226;-1.296;2023-06-19T02:42:44;36;35;
73623;PMS5003;61921;53.226;-1.296;2023-06-19T02:45:09;38;35;
73623;PMS5003;61921;53.226;-1.296;2023-06-19T02:47:35;35;35;
73623;PMS5003;61921;53.226;-1.296;2023-06-19T02:50:01;32;29;
73623;PMS5003;61921;53.226;-1.296;2023-06-19T02:52:26;38;36;
73623;PMS5003;61921;53.226;-1.296;2023-06-19T02:54:51;45;39;
73623;PMS5003;61921;53.226;-1.296;2023-06-19T02:57:16;35;34;
73623;PMS5003;61921;53.226;-1.296;2023-06-19T02:59:42;40;40;
73623;PMS5003;61921;53.226;-1.296;2023-06-19T03:02:07;44;40;
73623;PMS5003;61921;53.226;-1.296;2023-06-19T03:04:32;34;33;
73623;PMS5003;61921;53.226;-1.296;2023-06-19T03:06:58;40;36;
73623;PMS5003;61921;53.226;-1.296;2023-06-19T03:09:24;35;34;
73623;PMS5003;61921;53.226;-1.296;2023-06-19T03:11:50;36;34;
73623;PMS5003;61921;53.226;-1.296;2023-06-19T03:14:15;39;36;
73623;PMS5003;61921;53.226;-1.296;2023-06-19T03:16:41;33;32;
73623;PMS5003;61921;53.226;-1.296;2023-06-19T03:19:07;34;34;
73623;PMS5003;61921;53.226;-1.296;2023-06-19T03:21:32;43;38;
73623;PMS5003;61921;53.226;-1.296;2023-06-19T03:23:57;40;39;
73623;PMS5003;61921;53.226;-1.296;2023-06-19T03:26:23;38;38;
73623;PMS5003;61921;53.226;-1.296;2023-06-19T03:28:48;44;40;
73623;PMS5003;61921;53.226;-1.296;2023-06-19T03:31:15;37;36;
73623;PMS5003;61921;53.226;-1.296;2023-06-19T03:33:39;39;37;
73623;PMS5003;61921;53.226;-1.296;2023-06-19T03:36:04;38;36;
73623;PMS5003;61921;53.226;-1.296;2023-06-19T03:38:29;39;35;
73623;PMS5003;61921;53.226;-1.296;2023-06-19T03:40:54;40;38;
73623;PMS5003;61921;53.226;-1.296;2023-06-19T03:43:20;44;39;
73623;PMS5003;61921;53.226;-1.296;2023-06-19T03:45:45;41;38;
73623;PMS5003;61921;53.226;-1.296;2023-06-19T03:48:10;38;36;
73623;PMS5003;61921;53.226;-1.296;2023-06-19T03:50:35;39;34;
73623;PMS5003;61921;53.226;-1.296;2023-06-19T03:53:01;35;33;
73623;PMS5003;61921;53.226;-1.296;2023-06-19T03:55:25;35;33;
73623;PMS5003;61921;53.226;-1.296;2023-06-19T03:57:51;29;28;
73623;PMS5003;61921;53.226;-1.296;2023-06-19T04:00:17;35;35;
73623;PMS5003;61921;53.226;-1.296;2023-06-19T04:02:42;32;30;
73623;PMS5003;61921;53.226;-1.296;2023-06-19T04:05:08;31;31;
73623;PMS5003;61921;53.226;-1.296;2023-06-19T04:07:34;35;35;
73623;PMS5003;61921;53.226;-1.296;2023-06-19T04:10:00;33;32;
73623;PMS5003;61921;53.226;-1.296;2023-06-19T04:12:24;37;35;
73623;PMS5003;61921;53.226;-1.296;2023-06-19T04:14:50;38;34;
73623;PMS5003;61921;53.226;-1.296;2023-06-19T04:17:15;38;36;
73623;PMS5003;61921;53.226;-1.296;2023-06-19T04:19:40;40;38;
73623;PMS5003;61921;53.226;-1.296;2023-06-19T04:22:06;32;29;
73623;PMS5003;61921;53.226;-1.296;2023-06-19T04:24:31;29;29;
73623;PMS5003;61921;53.226;-1.296;2023-06-19T04:26:57;30;27;
73623;PMS5003;61921;53.226;-1.296;2023-06-19T04:29:22;38;34;
73623;PMS5003;61921;53.226;-1.296;2023-06-19T04:31:48;38;35;
73623;PMS5003;61921;53.226;-1.296;2023-06-19T04:34:15;38;36;
73623;PMS5003;61921;53.226;-1.296;2023-06-19T04:36:39;29;27;
73623;PMS5003;61921;53.226;-1.296;2023-06-19T04:39:05;35;34;
73623;PMS5003;61921;53.226;-1.296;2023-06-19T04:41:30;36;34;
73623;PMS5003;61921;53.226;-1.296;2023-06-19T04:43:55;31;30;
73623;PMS5003;61921;53.226;-1.296;2023-06-19T04:46:21;44;40;
73623;PMS5003;61921;53.226;-1.296;2023-06-19T04:48:46;32;31;
73623;PMS5003;61921;53.226;-1.296;2023-06-19T04:51:12;38;36;
73623;PMS5003;61921;53.226;-1.296;2023-06-19T04:53:37;35;31;
73623;PMS5003;61921;53.226;-1.296;2023-06-19T04:56:03;33;29;
73623;PMS5003;61921;53.226;-1.296;2023-06-19T04:58:28;35;33;
73623;PMS5003;61921;53.226;-1.296;2023-06-19T05:00:53;34;29;
73623;PMS5003;61921;53.226;-1.296;2023-06-19T05:03:19;37;33;
73623;PMS5003;61921;53.226;-1.296;2023-06-19T05:05:45;28;28;
73623;PMS5003;61921;53.226;-1.296;2023-06-19T05:08:12;36;36;
73623;PMS5003;61921;53.226;-1.296;2023-06-19T05:10:36;34;33;
73623;PMS5003;61921;53.226;-1.296;2023-06-19T05:13:02;37;35;
73623;PMS5003;61921;53.226;-1.296;2023-06-19T05:15:27;34;33;
73623;PMS5003;61921;53.226;-1.296;2023-06-19T05:17:53;35;30;
73623;PMS5003;61921;53.226;-1.296;2023-06-19T05:20:19;38;34;
73623;PMS5003;61921;53.226;-1.296;2023-06-19T05:22:45;33;33;
73623;PMS5003;61921;53.226;-1.296;2023-06-19T05:25:11;28;28;
73623;PMS5003;61921;53.226;-1.296;2023-06-19T05:27:36;32;29;
73623;PMS5003;61921;53.226;-1.296;2023-06-19T05:30:01;37;34;
73623;PMS5003;61921;53.226;-1.296;2023-06-19T05:32:27;36;36;
73623;PMS5003;61921;53.226;-1.296;2023-06-19T05:34:52;32;29;
73623;PMS5003;61921;53.226;-1.296;2023-06-19T05:37:17;28;25;
73623;PMS5003;61921;53.226;-1.296;2023-06-19T05:39:43;39;35;
73623;PMS5003;61921;53.226;-1.296;2023-06-19T05:42:08;32;31;
73623;PMS5003;61921;53.226;-1.296;2023-06-19T05:44:34;28;27;
73623;PMS5003;61921;53.226;-1.296;2023-06-19T05:46:59;28;25;
73623;PMS5003;61921;53.226;-1.296;2023-06-19T05:49:24;30;27;
73623;PMS5003;61921;53.226;-1.296;2023-06-19T05:51:49;33;31;
73623;PMS5003;61921;53.226;-1.296;2023-06-19T05:54:14;31;27;
73623;PMS5003;61921;53.226;-1.296;2023-06-19T05:56:40;31;29;
73623;PMS5003;61921;53.226;-1.296;2023-06-19T05:59:06;31;31;
73623;PMS5003;61921;53.226;-1.296;2023-06-19T06:01:31;30;27;
73623;PMS5003;61921;53.226;-1.296;2023-06-19T06:03:57;25;25;
73623;PMS5003;61921;53.226;-1.296;2023-06-19T06:06:22;26;24;
73623;PMS5003;61921;53.226;-1.296;2023-06-19T06:08:48;26;25;
73623;PMS5003;61921;53.226;-1.296;2023-06-19T06:11:13;28;26;
73623;PMS5003;61921;53.226;-1.296;2023-06-19T06:13:39;30;28;
73623;PMS5003;61921;53.226;-1.296;2023-06-19T06:16:04;26;26;
73623;PMS5003;61921;53.226;-1.296;2023-06-19T06:18:30;28;27;
73623;PMS5003;61921;53.226;-1.296;2023-06-19T06:20:55;27;23;
73623;PMS5003;61921;53.226;-1.296;2023-06-19T06:23:21;26;24;
73623;PMS5003;61921;53.226;-1.296;2023-06-19T06:25:46;26;25;
73623;PMS5003;61921;53.226;-1.296;2023-06-19T06:28:11;24;22;
73623;PMS5003;61921;53.226;-1.296;2023-06-19T06:30:36;24;24;
73623;PMS5003;61921;53.226;-1.296;2023-06-19T06:33:02;25;22;
73623;PMS5003;61921;53.226;-1.296;2023-06-19T06:35:27;21;21;
73623;PMS5003;61921;53.226;-1.296;2023-06-19T06:37:53;26;26;
73623;PMS5003;61921;53.226;-1.296;2023-06-19T06:40:18;25;20;
73623;PMS5003;61921;53.226;-1.296;2023-06-19T06:42:43;27;21;
73623;PMS5003;61921;53.226;-1.296;2023-06-19T06:45:09;19;19;
73623;PMS5003;61921;53.226;-1.296;2023-06-19T06:47:35;23;23;
73623;PMS5003;61921;53.226;-1.296;2023-06-19T06:50:00;22;18;
73623;PMS5003;61921;53.226;-1.296;2023-06-19T06:52:25;22;21;
73623;PMS5003;61921;53.226;-1.296;2023-06-19T06:54:51;26;24;
73623;PMS5003;61921;53.226;-1.296;2023-06-19T06:57:16;20;20;
73623;PMS5003;61921;53.226;-1.296;2023-06-19T06:59:41;19;17;
73623;PMS5003;61921;53.226;-1.296;2023-06-19T07:02:07;23;21;
73623;PMS5003;61921;53.226;-1.296;2023-06-19T07:04:33;20;18;
73623;PMS5003;61921;53.226;-1.296;2023-06-19T07:06:58;20;19;
73623;PMS5003;61921;53.226;-1.296;2023-06-19T07:09:23;21;18;
73623;PMS5003;61921;53.226;-1.296;2023-06-19T07:11:49;20;18;
73623;PMS5003;61921;53.226;-1.296;2023-06-19T07:14:14;23;20;
73623;PMS5003;61921;53.226;-1.296;2023-06-19T07:16:39;20;17;
73623;PMS5003;61921;53.226;-1.296;2023-06-19T07:19:05;18;16;
73623;PMS5003;61921;53.226;-1.296;2023-06-19T07:21:30;18;15;
73623;PMS5003;61921;53.226;-1.296;2023-06-19T07:23:56;16;16;
73623;PMS5003;61921;53.226;-1.296;2023-06-19T07:26:21;14;14;
73623;PMS5003;61921;53.226;-1.296;2023-06-19T07:28:46;16;16;
73623;PMS5003;61921;53.226;-1.296;2023-06-19T07:31:12;16;14;
73623;PMS5003;61921;53.226;-1.296;2023-06-19T07:33:38;17;14;
73623;PMS5003;61921;53.226;-1.296;2023-06-19T07:36:03;16;14;
73623;PMS5003;61921;53.226;-1.296;2023-06-19T07:38:28;13;13;
73623;PMS5003;61921;53.226;-1.296;2023-06-19T07:40:54;14;14;
73623;PMS5003;61921;53.226;-1.296;2023-06-19T07:43:19;16;14;
73623;PMS5003;61921;53.226;-1.296;2023-06-19T07:45:44;13;11;
73623;PMS5003;61921;53.226;-1.296;2023-06-19T07:48:10;14;13;
73623;PMS5003;61921;53.226;-1.296;2023-06-19T07:50:35;16;13;
73623;PMS5003;61921;53.226;-1.296;2023-06-19T07:53:00;17;15;
73623;PMS5003;61921;53.226;-1.296;2023-06-19T07:55:26;17;14;
73623;PMS5003;61921;53.226;-1.296;2023-06-19T07:57:52;14;14;
73623;PMS5003;61921;53.226;-1.296;2023-06-19T08:00:18;15;13;
73623;PMS5003;61921;53.226;-1.296;2023-06-19T08:02:43;14;14;
73623;PMS5003;61921;53.226;-1.296;2023-06-19T08:05:09;18;13;
73623;PMS5003;61921;53.226;-1.296;2023-06-19T08:07:34;13;13;
73623;PMS5003;61921;53.226;-1.296;2023-06-19T08:09:59;15;14;
73623;PMS5003;61921;53.226;-1.296;2023-06-19T08:12:24;12;12;
73623;PMS5003;61921;53.226;-1.296;2023-06-19T08:14:49;14;12;
73623;PMS5003;61921;53.226;-1.296;2023-06-19T08:17:14;15;12;
73623;PMS5003;61921;53.226;-1.296;2023-06-19T08:19:40;14;14;
73623;PMS5003;61921;53.226;-1.296;2023-06-19T08:22:05;15;12;
73623;PMS5003;61921;53.226;-1.296;2023-06-19T08:24:30;14;13;
73623;PMS5003;61921;53.226;-1.296;2023-06-19T08:26:56;17;17;
73623;PMS5003;61921;53.226;-1.296;2023-06-19T08:29:21;10;10;
73623;PMS5003;61921;53.226;-1.296;2023-06-19T08:31:46;9;9;
73623;PMS5003;61921;53.226;-1.296;2023-06-19T08:34:11;9;9;
73623;PMS5003;61921;53.226;-1.296;2023-06-19T08:36:36;11;9;
73623;PMS5003;61921;53.226;-1.296;2023-06-19T08:39:02;14;13;
73623;PMS5003;61921;53.226;-1.296;2023-06-19T08:41:27;15;12;
73623;PMS5003;61921;53.226;-1.296;2023-06-19T08:43:53;13;11;
73623;PMS5003;61921;53.226;-1.296;2023-06-19T08:46:19;13;11;
73623;PMS5003;61921;53.226;-1.296;2023-06-19T08:48:44;14;13;
73623;PMS5003;61921;53.226;-1.296;2023-06-19T08:51:09;12;12;
73623;PMS5003;61921;53.226;-1.296;2023-06-19T08:53:35;13;13;
73623;PMS5003;61921;53.226;-1.296;2023-06-19T08:56:00;11;11;
73623;PMS5003;61921;53.226;-1.296;2023-06-19T08:58:27;11;11;
73623;PMS5003;61921;53.226;-1.296;2023-06-19T09:00:51;18;17;
73623;PMS5003;61921;53.226;-1.296;2023-06-19T09:03:19;12;11;
73623;PMS5003;61921;53.226;-1.296;2023-06-19T09:05:41;10;10;
73623;PMS5003;61921;53.226;-1.296;2023-06-19T09:08:07;13;11;
73623;PMS5003;61921;53.226;-1.296;2023-06-19T09:10:32;12;12;
73623;PMS5003;61921;53.226;-1.296;2023-06-19T09:12:58;11;11;
73623;PMS5003;61921;53.226;-1.296;2023-06-19T09:15:23;15;14;
73623;PMS5003;61921;53.226;-1.296;2023-06-19T09:17:48;11;11;
73623;PMS5003;61921;53.226;-1.296;2023-06-19T09:20:14;19;18;
73623;PMS5003;61921;53.226;-1.296;2023-06-19T09:22:39;14;12;
73623;PMS5003;61921;53.226;-1.296;2023-06-19T09:25:06;19;19;
73623;PMS5003;61921;53.226;-1.296;2023-06-19T09:27:32;12;10;
73623;PMS5003;61921;53.226;-1.296;2023-06-19T09:29:55;17;13;
73623;PMS5003;61921;53.226;-1.296;2023-06-19T09:32:21;13;13;
73623;PMS5003;61921;53.226;-1.296;2023-06-19T09:34:46;11;10;
73623;PMS5003;61921;53.226;-1.296;2023-06-19T09:37:11;15;15;
73623;PMS5003;61921;53.226;-1.296;2023-06-19T09:39:37;18;17;
73623;PMS5003;61921;53.226;-1.296;2023-06-19T09:42:02;12;12;
73623;PMS5003;61921;53.226;-1.296;2023-06-19T09:44:27;15;14;
73623;PMS5003;61921;53.226;-1.296;2023-06-19T09:46:52;13;10;
73623;PMS5003;61921;53.226;-1.296;2023-06-19T09:49:17;14;11;
73623;PMS5003;61921;53.226;-1.296;2023-06-19T09:51:42;13;12;
73623;PMS5003;61921;53.226;-1.296;2023-06-19T09:54:08;17;16;
73623;PMS5003;61921;53.226;-1.296;2023-06-19T09:56:34;11;11;
73623;PMS5003;61921;53.226;-1.296;2023-06-19T09:58:59;9;9;
73623;PMS5003;61921;53.226;-1.296;2023-06-19T10:01:24;12;11;
73623;PMS5003;61921;53.226;-1.296;2023-06-19T10:03:49;11;10;
73623;PMS5003;61921;53.226;-1.296;2023-06-19T10:06:16;8;8;
73623;PMS5003;61921;53.226;-1.296;2023-06-19T10:08:40;9;9;
73623;PMS5003;61921;53.226;-1.296;2023-06-19T10:11:05;9;9;
73623;PMS5003;61921;53.226;-1.296;2023-06-19T10:13:31;9;9;
73623;PMS5003;61921;53.226;-1.296;2023-06-19T10:15:55;10;9;
73623;PMS5003;61921;53.226;-1.296;2023-06-19T10:18:20;10;10;
73623;PMS5003;61921;53.226;-1.296;2023-06-19T10:20:46;8;8;
73623;PMS5003;61921;53.226;-1.296;2023-06-19T10:23:11;12;9;
73623;PMS5003;61921;53.226;-1.296;2023-06-19T10:25:37;12;9;
73623;PMS5003;61921;53.226;-1.296;2023-06-19T10:28:01;10;9;
73623;PMS5003;61921;53.226;-1.296;2023-06-19T10:30:27;9;9;
73623;PMS5003;61921;53.226;-1.296;2023-06-19T10:32:53;10;8;
73623;PMS5003;61921;53.226;-1.296;2023-06-19T10:35:19;11;9;
73623;PMS5003;61921;53.226;-1.296;2023-06-19T10:37:44;10;9;
73623;PMS5003;61921;53.226;-1.296;2023-06-19T10:40:09;9;9;
73623;PMS5003;61921;53.226;-1.296;2023-06-19T10:42:34;7;7;
73623;PMS5003;61921;53.226;-1.296;2023-06-19T10:45:01;9;9;
73623;PMS5003;61921;53.226;-1.296;2023-06-19T10:47:24;7;7;
73623;PMS5003;61921;53.226;-1.296;2023-06-19T10:49:49;9;7;
73623;PMS5003;61921;53.226;-1.296;2023-06-19T10:52:16;7;7;
73623;PMS5003;61921;53.226;-1.296;2023-06-19T10:54:41;11;7;
73623;PMS5003;61921;53.226;-1.296;2023-06-19T10:57:06;12;9;
73623;PMS5003;61921;53.226;-1.296;2023-06-19T10:59:31;11;11;
73623;PMS5003;61921;53.226;-1.296;2023-06-19T11:01:57;8;7;
73623;PMS5003;61921;53.226;-1.296;2023-06-19T11:04:22;12;11;
73623;PMS5003;61921;53.226;-1.296;2023-06-19T11:06:48;9;9;
73623;PMS5003;61921;53.226;-1.296;2023-06-19T11:09:13;10;7;
73623;PMS5003;61921;53.226;-1.296;2023-06-19T11:11:40;8;7;
73623;PMS5003;61921;53.226;-1.296;2023-06-19T11:14:06;8;8;
73623;PMS5003;61921;53.226;-1.296;2023-06-19T11:16:31;7;7;
73623;PMS5003;61921;53.226;-1.296;2023-06-19T11:18:57;8;8;
73623;PMS5003;61921;53.226;-1.296;2023-06-19T11:23:48;5;5;
73623;PMS5003;61921;53.226;-1.296;2023-06-19T11:26:14;7;7;
73623;PMS5003;61921;53.226;-1.296;2023-06-19T11:28:39;9;8;
73623;PMS5003;61921;53.226;-1.296;2023-06-19T11:31:05;7;7;
73623;PMS5003;61921;53.226;-1.296;2023-06-19T11:33:30;8;7;
73623;PMS5003;61921;53.226;-1.296;2023-06-19T11:35:59;12;11;
73623;PMS5003;61921;53.226;-1.296;2023-06-19T11:38:23;8;8;
73623;PMS5003;61921;53.226;-1.296;2023-06-19T11:40:47;7;7;
73623;PMS5003;61921;53.226;-1.296;2023-06-19T11:43:12;13;10;
73623;PMS5003;61921;53.226;-1.296;2023-06-19T11:45:46;10;8;
73623;PMS5003;61921;53.226;-1.296;2023-06-19T11:48:04;10;10;
73623;PMS5003;61921;53.226;-1.296;2023-06-19T11:50:28;10;10;
73623;PMS5003;61921;53.226;-1.296;2023-06-19T11:52:54;11;10;
73623;PMS5003;61921;53.226;-1.296;2023-06-19T11:55:19;9;8;
73623;PMS5003;61921;53.226;-1.296;2023-06-19T11:57:44;12;11;
73623;PMS5003;61921;53.226;-1.296;2023-06-19T12:00:13;12;10;
73623;PMS5003;61921;53.226;-1.296;2023-06-19T12:02:36;9;8;
73623;PMS5003;61921;53.226;-1.296;2023-06-19T12:05:01;9;9;
73623;PMS5003;61921;53.226;-1.296;2023-06-19T12:07:27;11;11;
73623;PMS5003;61921;53.226;-1.296;2023-06-19T12:09:53;11;11;
73623;PMS5003;61921;53.226;-1.296;2023-06-19T12:12:18;11;10;
73623;PMS5003;61921;53.226;-1.296;2023-06-19T12:14:44;11;10;
73623;PMS5003;61921;53.226;-1.296;2023-06-19T12:17:10;11;11;
73623;PMS5003;61921;53.226;-1.296;2023-06-19T12:19:35;9;9;
73623;PMS5003;61921;53.226;-1.296;2023-06-19T12:22:03;11;10;
73623;PMS5003;61921;53.226;-1.296;2023-06-19T12:24:27;12;10;
73623;PMS5003;61921;53.226;-1.296;2023-06-19T12:26:52;10;9;
73623;PMS5003;61921;53.226;-1.296;2023-06-19T12:29:18;12;10;
73623;PMS5003;61921;53.226;-1.296;2023-06-19T12:31:44;10;9;
73623;PMS5003;61921;53.226;-1.296;2023-06-19T12:34:10;11;9;
73623;PMS5003;61921;53.226;-1.296;2023-06-19T12:36:36;13;9;
73623;PMS5003;61921;53.226;-1.296;2023-06-19T12:39:01;13;13;
73623;PMS5003;61921;53.226;-1.296;2023-06-19T12:41:27;10;8;
73623;PMS5003;61921;53.226;-1.296;2023-06-19T12:43:52;11;9;
73623;PMS5003;61921;53.226;-1.296;2023-06-19T12:46:18;11;11;
73623;PMS5003;61921;53.226;-1.296;2023-06-19T12:48:44;9;7;
73623;PMS5003;61921;53.226;-1.296;2023-06-19T12:51:10;12;12;
73623;PMS5003;61921;53.226;-1.296;2023-06-19T12:53:36;10;8;
73623;PMS5003;61921;53.226;-1.296;2023-06-19T12:56:02;9;9;
73623;PMS5003;61921;53.226;-1.296;2023-06-19T12:58:28;9;9;
73623;PMS5003;61921;53.226;-1.296;2023-06-19T13:00:53;8;8;
73623;PMS5003;61921;53.226;-1.296;2023-06-19T13:03:19;9;8;
73623;PMS5003;61921;53.226;-1.296;2023-06-19T13:05:45;6;6;
73623;PMS5003;61921;53.226;-1.296;2023-06-19T13:08:11;8;7;
73623;PMS5003;61921;53.226;-1.296;2023-06-19T13:10:37;6;6;
73623;PMS5003;61921;53.226;-1.296;2023-06-19T13:13:02;9;8;
73623;PMS5003;61921;53.226;-1.296;2023-06-19T13:15:28;10;9;
73623;PMS5003;61921;53.226;-1.296;2023-06-19T13:17:54;7;7;
73623;PMS5003;61921;53.226;-1.296;2023-06-19T13:20:19;7;7;
73623;PMS5003;61921;53.226;-1.296;2023-06-19T13:22:45;8;8;
73623;PMS5003;61921;53.226;-1.296;2023-06-19T13:25:10;10;8;
73623;PMS5003;61921;53.226;-1.296;2023-06-19T13:27:36;9;9;
73623;PMS5003;61921;53.226;-1.296;2023-06-19T13:30:03;8;7;
73623;PMS5003;61921;53.226;-1.296;2023-06-19T13:32:28;10;8;
73623;PMS5003;61921;53.226;-1.296;2023-06-19T13:34:54;11;8;
73623;PMS5003;61921;53.226;-1.296;2023-06-19T13:37:20;7;7;
73623;PMS5003;61921;53.226;-1.296;2023-06-19T13:39:45;7;7;
73623;PMS5003;61921;53.226;-1.296;2023-06-19T13:42:11;8;8;
73623;PMS5003;61921;53.226;-1.296;2023-06-19T13:44:37;7;7;
73623;PMS5003;61921;53.226;-1.296;2023-06-19T13:47:03;7;7;
73623;PMS5003;61921;53.226;-1.296;2023-06-19T13:49:28;8;7;
73623;PMS5003;61921;53.226;-1.296;2023-06-19T13:51:54;7;7;
73623;PMS5003;61921;53.226;-1.296;2023-06-19T13:54:20;8;6;
73623;PMS5003;61921;53.226;-1.296;2023-06-19T13:56:46;9;6;
73623;PMS5003;61921;53.226;-1.296;2023-06-19T13:59:11;10;10;
73623;PMS5003;61921;53.226;-1.296;2023-06-19T14:01:37;7;7;
73623;PMS5003;61921;53.226;-1.296;2023-06-19T14:04:03;9;9;
73623;PMS5003;61921;53.226;-1.296;2023-06-19T14:06:29;8;7;
73623;PMS5003;61921;53.226;-1.296;2023-06-19T14:08:55;7;7;
73623;PMS5003;61921;53.226;-1.296;2023-06-19T14:11:21;7;7;
73623;PMS5003;61921;53.226;-1.296;2023-06-19T14:13:46;9;9;
73623;PMS5003;61921;53.226;-1.296;2023-06-19T14:16:12;6;5;
73623;PMS5003;61921;53.226;-1.296;2023-06-19T14:18:38;8;8;
73623;PMS5003;61921;53.226;-1.296;2023-06-19T14:21:04;5;5;
73623;PMS5003;61921;53.226;-1.296;2023-06-19T14:23:29;7;7;
73623;PMS5003;61921;53.226;-1.296;2023-06-19T14:25:55;9;8;
73623;PMS5003;61921;53.226;-1.296;2023-06-19T14:28:21;7;7;
73623;PMS5003;61921;53.226;-1.296;2023-06-19T14:30:47;7;7;
73623;PMS5003;61921;53.226;-1.296;2023-06-19T14:33:13;6;6;
73623;PMS5003;61921;53.226;-1.296;2023-06-19T14:35:38;5;5;
73623;PMS5003;61921;53.226;-1.296;2023-06-19T14:38:04;8;6;
73623;PMS5003;61921;53.226;-1.296;2023-06-19T14:40:30;8;6;
73623;PMS5003;61921;53.226;-1.296;2023-06-19T14:42:55;6;6;
73623;PMS5003;61921;53.226;-1.296;2023-06-19T14:45:21;8;8;
73623;PMS5003;61921;53.226;-1.296;2023-06-19T14:47:47;8;8;
73623;PMS5003;61921;53.226;-1.296;2023-06-19T14:50:13;7;6;
73623;PMS5003;61921;53.226;-1.296;2023-06-19T14:52:39;6;5;
73623;PMS5003;61921;53.226;-1.296;2023-06-19T14:55:05;5;5;
73623;PMS5003;61921;53.226;-1.296;2023-06-19T14:57:30;9;8;
73623;PMS5003;61921;53.226;-1.296;2023-06-19T14:59:56;8;7;
73623;PMS5003;61921;53.226;-1.296;2023-06-19T15:02:22;8;7;
73623;PMS5003;61921;53.226;-1.296;2023-06-19T15:04:47;5;5;
73623;PMS5003;61921;53.226;-1.296;2023-06-19T15:07:13;5;5;
73623;PMS5003;61921;53.226;-1.296;2023-06-19T15:09:39;7;5;
73623;PMS5003;61921;53.226;-1.296;2023-06-19T15:12:05;7;7;
73623;PMS5003;61921;53.226;-1.296;2023-06-19T15:14:30;6;6;
73623;PMS5003;61921;53.226;-1.296;2023-06-19T15:16:56;7;5;
73623;PMS5003;61921;53.226;-1.296;2023-06-19T15:19:21;5;5;
73623;PMS5003;61921;53.226;-1.296;2023-06-19T15:21:47;5;5;
73623;PMS5003;61921;53.226;-1.296;2023-06-19T15:24:13;8;7;
73623;PMS5003;61921;53.226;-1.296;2023-06-19T15:26:39;7;6;
73623;PMS5003;61921;53.226;-1.296;2023-06-19T15:29:05;5;5;
73623;PMS5003;61921;53.226;-1.296;2023-06-19T15:31:31;5;5;
73623;PMS5003;61921;53.226;-1.296;2023-06-19T15:33:56;6;6;
73623;PMS5003;61921;53.226;-1.296;2023-06-19T15:36:22;5;5;
73623;PMS5003;61921;53.226;-1.296;2023-06-19T15:38:48;5;5;
73623;PMS5003;61921;53.226;-1.296;2023-06-19T15:41:14;8;7;
73623;PMS5003;61921;53.226;-1.296;2023-06-19T15:43:40;6;5;
73623;PMS5003;61921;53.226;-1.296;2023-06-19T15:46:05;5;5;
73623;PMS5003;61921;53.226;-1.296;2023-06-19T15:48:31;9;7;
73623;PMS5003;61921;53.226;-1.296;2023-06-19T15:50:57;9;8;
73623;PMS5003;61921;53.226;-1.296;2023-06-19T15:53:22;6;5;
73623;PMS5003;61921;53.226;-1.296;2023-06-19T15:55:48;8;6;
73623;PMS5003;61921;53.226;-1.296;2023-06-19T15:58:14;5;5;
73623;PMS5003;61921;53.226;-1.296;2023-06-19T16:00:40;5;5;